sensor_id;sensor_type;location;lat;lon;timestamp;P1;durP1;ratioP1;P2;durP2;ratioP2
11319;SDS011;5715;48.234;14.320;2023-06-24T00:00:48;3.58;;;3.38;;
11319;SDS011;5715;48.234;14.320;2023-06-24T00:03:35;3.03;;;2.92;;
11319;SDS011;5715;48.234;14.320;2023-06-24T00:06:24;3.28;;;3.15;;
11319;SDS011;5715;48.234;14.320;2023-06-24T00:09:12;3.40;;;3.20;;
11319;SDS011;5715;48.234;14.320;2023-06-24T00:12:01;3.40;;;3.20;;
11319;SDS011;5715;48.234;14.320;2023-06-24T00:14:50;3.05;;;2.95;;
11319;SDS011;5715;48.234;14.320;2023-06-24T00:17:37;3.28;;;3.15;;
11319;SDS011;5715;48.234;14.320;2023-06-24T00:20:25;3.53;;;3.33;;
11319;SDS011;5715;48.234;14.320;2023-06-24T00:23:13;3.97;;;3.78;;
11319;SDS011;5715;48.234;14.320;2023-06-24T00:26:05;3.38;;;3.28;;
11319;SDS011;5715;48.234;14.320;2023-06-24T00:28:52;3.55;;;3.35;;
11319;SDS011;5715;48.234;14.320;2023-06-24T00:31:40;3.42;;;3.22;;
11319;SDS011;5715;48.234;14.320;2023-06-24T00:34:28;3.55;;;3.35;;
11319;SDS011;5715;48.234;14.320;2023-06-24T00:37:16;3.42;;;3.22;;
11319;SDS011;5715;48.234;14.320;2023-06-24T00:40:04;6.60;;;3.13;;
11319;SDS011;5715;48.234;14.320;2023-06-24T00:42:52;3.65;;;3.45;;
11319;SDS011;5715;48.234;14.320;2023-06-24T00:45:41;3.35;;;3.15;;
11319;SDS011;5715;48.234;14.320;2023-06-24T00:48:29;3.17;;;2.97;;
11319;SDS011;5715;48.234;14.320;2023-06-24T00:51:18;2.90;;;2.80;;
11319;SDS011;5715;48.234;14.320;2023-06-24T00:54:07;3.35;;;3.20;;
11319;SDS011;5715;48.234;14.320;2023-06-24T00:56:55;3.75;;;3.50;;
11319;SDS011;5715;48.234;14.320;2023-06-24T00:59:47;3.05;;;2.90;;
11319;SDS011;5715;48.234;14.320;2023-06-24T01:02:35;7.95;;;3.60;;
11319;SDS011;5715;48.234;14.320;2023-06-24T01:05:24;3.25;;;3.13;;
11319;SDS011;5715;48.234;14.320;2023-06-24T01:08:13;2.95;;;2.85;;
11319;SDS011;5715;48.234;14.320;2023-06-24T01:11:02;5.32;;;2.88;;
11319;SDS011;5715;48.234;14.320;2023-06-24T01:13:50;3.72;;;3.53;;
11319;SDS011;5715;48.234;14.320;2023-06-24T01:33:36;2.95;;;2.85;;
11319;SDS011;5715;48.234;14.320;2023-06-24T01:36:54;2.78;;;2.67;;
11319;SDS011;5715;48.234;14.320;2023-06-24T01:39:58;3.10;;;2.92;;
11319;SDS011;5715;48.234;14.320;2023-06-24T01:42:57;3.20;;;3.05;;
11319;SDS011;5715;48.234;14.320;2023-06-24T01:45:49;3.42;;;3.22;;
11319;SDS011;5715;48.234;14.320;2023-06-24T01:48:42;3.33;;;3.13;;
11319;SDS011;5715;48.234;14.320;2023-06-24T01:51:32;3.53;;;3.33;;
11319;SDS011;5715;48.234;14.320;2023-06-24T01:54:23;3.78;;;3.58;;
11319;SDS011;5715;48.234;14.320;2023-06-24T01:57:15;3.70;;;3.50;;
11319;SDS011;5715;48.234;14.320;2023-06-24T02:00:04;3.28;;;3.15;;
11319;SDS011;5715;48.234;14.320;2023-06-24T02:02:55;3.20;;;3.08;;
11319;SDS011;5715;48.234;14.320;2023-06-24T02:05:43;3.33;;;3.17;;
11319;SDS011;5715;48.234;14.320;2023-06-24T02:08:35;3.22;;;3.08;;
11319;SDS011;5715;48.234;14.320;2023-06-24T02:11:28;3.42;;;3.22;;
11319;SDS011;5715;48.234;14.320;2023-06-24T02:14:19;3.60;;;3.35;;
11319;SDS011;5715;48.234;14.320;2023-06-24T02:17:08;8.23;;;3.30;;
11319;SDS011;5715;48.234;14.320;2023-06-24T02:19:58;3.63;;;3.42;;
11319;SDS011;5715;48.234;14.320;2023-06-24T02:22:47;3.78;;;3.58;;
11319;SDS011;5715;48.234;14.320;2023-06-24T02:25:35;3.97;;;3.78;;
11319;SDS011;5715;48.234;14.320;2023-06-24T02:28:28;3.63;;;3.42;;
11319;SDS011;5715;48.234;14.320;2023-06-24T02:31:17;3.20;;;3.03;;
11319;SDS011;5715;48.234;14.320;2023-06-24T02:34:05;3.20;;;3.00;;
11319;SDS011;5715;48.234;14.320;2023-06-24T02:36:53;2.95;;;2.75;;
11319;SDS011;5715;48.234;14.320;2023-06-24T02:39:40;3.97;;;3.03;;
11319;SDS011;5715;48.234;14.320;2023-06-24T02:42:31;3.15;;;2.78;;
11319;SDS011;5715;48.234;14.320;2023-06-24T02:45:18;3.05;;;2.85;;
11319;SDS011;5715;48.234;14.320;2023-06-24T02:48:06;3.17;;;2.97;;
11319;SDS011;5715;48.234;14.320;2023-06-24T02:50:58;2.85;;;2.75;;
11319;SDS011;5715;48.234;14.320;2023-06-24T02:53:47;3.15;;;2.88;;
11319;SDS011;5715;48.234;14.320;2023-06-24T02:56:36;3.20;;;3.00;;
11319;SDS011;5715;48.234;14.320;2023-06-24T02:59:29;3.35;;;3.05;;
11319;SDS011;5715;48.234;14.320;2023-06-24T03:02:17;2.65;;;2.45;;
11319;SDS011;5715;48.234;14.320;2023-06-24T03:05:05;3.15;;;2.95;;
11319;SDS011;5715;48.234;14.320;2023-06-24T03:07:54;3.22;;;3.00;;
11319;SDS011;5715;48.234;14.320;2023-06-24T03:10:43;3.78;;;3.47;;
11319;SDS011;5715;48.234;14.320;2023-06-24T03:13:31;2.83;;;2.63;;
11319;SDS011;5715;48.234;14.320;2023-06-24T03:16:18;3.00;;;2.72;;
11319;SDS011;5715;48.234;14.320;2023-06-24T03:19:07;2.42;;;2.33;;
11319;SDS011;5715;48.234;14.320;2023-06-24T03:21:54;3.03;;;2.72;;
11319;SDS011;5715;48.234;14.320;2023-06-24T03:24:42;3.22;;;3.03;;
11319;SDS011;5715;48.234;14.320;2023-06-24T03:27:30;3.38;;;3.05;;
11319;SDS011;5715;48.234;14.320;2023-06-24T03:30:18;3.72;;;3.42;;
11319;SDS011;5715;48.234;14.320;2023-06-24T03:33:05;3.13;;;2.92;;
11319;SDS011;5715;48.234;14.320;2023-06-24T03:35:53;2.97;;;2.67;;
11319;SDS011;5715;48.234;14.320;2023-06-24T03:38:41;3.42;;;3.15;;
11319;SDS011;5715;48.234;14.320;2023-06-24T03:41:29;3.45;;;3.17;;
11319;SDS011;5715;48.234;14.320;2023-06-24T03:44:16;2.92;;;2.72;;
11319;SDS011;5715;48.234;14.320;2023-06-24T03:47:04;3.05;;;2.80;;
11319;SDS011;5715;48.234;14.320;2023-06-24T03:49:52;3.00;;;2.70;;
11319;SDS011;5715;48.234;14.320;2023-06-24T03:52:39;2.35;;;2.15;;
11319;SDS011;5715;48.234;14.320;2023-06-24T03:55:27;2.38;;;2.17;;
11319;SDS011;5715;48.234;14.320;2023-06-24T03:58:14;2.80;;;2.60;;
11319;SDS011;5715;48.234;14.320;2023-06-24T04:01:03;1.80;;;1.70;;
11319;SDS011;5715;48.234;14.320;2023-06-24T04:03:51;2.25;;;2.05;;
11319;SDS011;5715;48.234;14.320;2023-06-24T04:06:38;2.28;;;2.03;;
11319;SDS011;5715;48.234;14.320;2023-06-24T04:09:26;2.45;;;2.25;;
11319;SDS011;5715;48.234;14.320;2023-06-24T04:12:13;3.10;;;2.35;;
11319;SDS011;5715;48.234;14.320;2023-06-24T04:15:04;3.83;;;2.83;;
11319;SDS011;5715;48.234;14.320;2023-06-24T04:17:54;2.10;;;1.90;;
11319;SDS011;5715;48.234;14.320;2023-06-24T04:20:41;1.98;;;1.88;;
11319;SDS011;5715;48.234;14.320;2023-06-24T04:23:29;1.80;;;1.70;;
11319;SDS011;5715;48.234;14.320;2023-06-24T04:26:16;2.17;;;1.92;;
11319;SDS011;5715;48.234;14.320;2023-06-24T04:29:04;2.22;;;2.03;;
11319;SDS011;5715;48.234;14.320;2023-06-24T04:31:52;2.63;;;2.42;;
11319;SDS011;5715;48.234;14.320;2023-06-24T04:34:39;11.80;;;2.05;;
11319;SDS011;5715;48.234;14.320;2023-06-24T04:37:27;2.58;;;2.38;;
11319;SDS011;5715;48.234;14.320;2023-06-24T04:40:16;1.98;;;1.80;;
11319;SDS011;5715;48.234;14.320;2023-06-24T04:43:06;2.42;;;2.22;;
11319;SDS011;5715;48.234;14.320;2023-06-24T04:45:53;2.00;;;1.85;;
11319;SDS011;5715;48.234;14.320;2023-06-24T04:48:44;2.55;;;2.10;;
11319;SDS011;5715;48.234;14.320;2023-06-24T04:51:31;2.40;;;2.20;;
11319;SDS011;5715;48.234;14.320;2023-06-24T04:54:19;4.70;;;2.60;;
11319;SDS011;5715;48.234;14.320;2023-06-24T04:57:22;4.03;;;1.77;;
11319;SDS011;5715;48.234;14.320;2023-06-24T05:00:15;2.13;;;1.92;;
11319;SDS011;5715;48.234;14.320;2023-06-24T05:03:03;2.35;;;2.05;;
11319;SDS011;5715;48.234;14.320;2023-06-24T05:05:50;2.42;;;1.98;;
11319;SDS011;5715;48.234;14.320;2023-06-24T05:08:38;2.88;;;2.20;;
11319;SDS011;5715;48.234;14.320;2023-06-24T05:11:26;2.92;;;2.63;;
11319;SDS011;5715;48.234;14.320;2023-06-24T05:14:13;1.75;;;1.65;;
11319;SDS011;5715;48.234;14.320;2023-06-24T05:17:01;2.95;;;2.03;;
11319;SDS011;5715;48.234;14.320;2023-06-24T05:19:49;2.70;;;2.10;;
11319;SDS011;5715;48.234;14.320;2023-06-24T05:22:37;2.72;;;2.53;;
11319;SDS011;5715;48.234;14.320;2023-06-24T05:25:24;2.42;;;2.20;;
11319;SDS011;5715;48.234;14.320;2023-06-24T05:28:12;2.90;;;2.67;;
11319;SDS011;5715;48.234;14.320;2023-06-24T05:31:00;2.75;;;2.10;;
11319;SDS011;5715;48.234;14.320;2023-06-24T05:33:47;9.07;;;2.28;;
11319;SDS011;5715;48.234;14.320;2023-06-24T05:36:35;2.35;;;2.15;;
11319;SDS011;5715;48.234;14.320;2023-06-24T05:39:23;2.45;;;2.25;;
11319;SDS011;5715;48.234;14.320;2023-06-24T05:42:11;3.28;;;2.30;;
11319;SDS011;5715;48.234;14.320;2023-06-24T05:44:59;2.33;;;1.98;;
11319;SDS011;5715;48.234;14.320;2023-06-24T05:47:46;4.07;;;2.28;;
11319;SDS011;5715;48.234;14.320;2023-06-24T05:50:34;2.83;;;2.25;;
11319;SDS011;5715;48.234;14.320;2023-06-24T05:53:21;2.63;;;2.13;;
11319;SDS011;5715;48.234;14.320;2023-06-24T05:56:09;2.47;;;2.28;;
11319;SDS011;5715;48.234;14.320;2023-06-24T05:58:56;2.65;;;2.22;;
11319;SDS011;5715;48.234;14.320;2023-06-24T06:01:44;3.35;;;2.17;;
11319;SDS011;5715;48.234;14.320;2023-06-24T06:04:32;2.25;;;1.73;;
11319;SDS011;5715;48.234;14.320;2023-06-24T06:07:20;4.65;;;2.28;;
11319;SDS011;5715;48.234;14.320;2023-06-24T06:10:07;3.22;;;2.55;;
11319;SDS011;5715;48.234;14.320;2023-06-24T06:12:56;2.65;;;2.45;;
11319;SDS011;5715;48.234;14.320;2023-06-24T06:15:43;2.60;;;1.98;;
11319;SDS011;5715;48.234;14.320;2023-06-24T06:18:31;2.50;;;2.30;;
11319;SDS011;5715;48.234;14.320;2023-06-24T06:21:18;3.63;;;2.03;;
11319;SDS011;5715;48.234;14.320;2023-06-24T06:24:06;3.05;;;2.40;;
11319;SDS011;5715;48.234;14.320;2023-06-24T06:26:54;3.13;;;2.58;;
11319;SDS011;5715;48.234;14.320;2023-06-24T06:29:41;2.25;;;1.95;;
11319;SDS011;5715;48.234;14.320;2023-06-24T06:32:29;2.55;;;2.05;;
11319;SDS011;5715;48.234;14.320;2023-06-24T06:35:18;2.35;;;2.15;;
11319;SDS011;5715;48.234;14.320;2023-06-24T06:38:05;2.85;;;2.22;;
11319;SDS011;5715;48.234;14.320;2023-06-24T06:40:53;2.28;;;2.05;;
11319;SDS011;5715;48.234;14.320;2023-06-24T06:43:41;5.55;;;2.40;;
11319;SDS011;5715;48.234;14.320;2023-06-24T06:46:28;3.65;;;2.65;;
11319;SDS011;5715;48.234;14.320;2023-06-24T06:49:16;2.53;;;2.22;;
11319;SDS011;5715;48.234;14.320;2023-06-24T06:52:03;2.03;;;1.88;;
11319;SDS011;5715;48.234;14.320;2023-06-24T06:54:52;15.00;;;2.67;;
11319;SDS011;5715;48.234;14.320;2023-06-24T06:57:40;3.65;;;2.47;;
11319;SDS011;5715;48.234;14.320;2023-06-24T07:00:27;4.80;;;3.28;;
11319;SDS011;5715;48.234;14.320;2023-06-24T07:03:15;3.15;;;2.85;;
11319;SDS011;5715;48.234;14.320;2023-06-24T07:06:02;3.90;;;2.28;;
11319;SDS011;5715;48.234;14.320;2023-06-24T07:08:50;2.75;;;2.40;;
11319;SDS011;5715;48.234;14.320;2023-06-24T07:11:37;2.78;;;2.58;;
11319;SDS011;5715;48.234;14.320;2023-06-24T07:14:25;6.65;;;2.50;;
11319;SDS011;5715;48.234;14.320;2023-06-24T07:17:13;4.13;;;2.60;;
11319;SDS011;5715;48.234;14.320;2023-06-24T07:20:01;3.00;;;2.65;;
11319;SDS011;5715;48.234;14.320;2023-06-24T07:22:49;4.55;;;2.78;;
11319;SDS011;5715;48.234;14.320;2023-06-24T07:25:36;2.50;;;2.30;;
11319;SDS011;5715;48.234;14.320;2023-06-24T07:28:24;2.83;;;2.60;;
11319;SDS011;5715;48.234;14.320;2023-06-24T07:31:12;3.28;;;2.63;;
11319;SDS011;5715;48.234;14.320;2023-06-24T07:34:00;2.95;;;2.75;;
11319;SDS011;5715;48.234;14.320;2023-06-24T07:36:48;2.42;;;2.22;;
11319;SDS011;5715;48.234;14.320;2023-06-24T07:39:37;2.80;;;2.53;;
11319;SDS011;5715;48.234;14.320;2023-06-24T07:42:25;6.93;;;3.00;;
11319;SDS011;5715;48.234;14.320;2023-06-24T07:45:13;3.53;;;2.72;;
11319;SDS011;5715;48.234;14.320;2023-06-24T07:48:01;2.60;;;2.30;;
11319;SDS011;5715;48.234;14.320;2023-06-24T07:50:49;3.70;;;2.60;;
11319;SDS011;5715;48.234;14.320;2023-06-24T07:53:37;4.20;;;2.97;;
11319;SDS011;5715;48.234;14.320;2023-06-24T07:56:24;2.65;;;2.45;;
11319;SDS011;5715;48.234;14.320;2023-06-24T07:59:12;4.72;;;2.67;;
11319;SDS011;5715;48.234;14.320;2023-06-24T08:01:59;2.95;;;2.63;;
11319;SDS011;5715;48.234;14.320;2023-06-24T08:04:47;3.15;;;2.85;;
11319;SDS011;5715;48.234;14.320;2023-06-24T08:07:36;3.38;;;3.08;;
11319;SDS011;5715;48.234;14.320;2023-06-24T08:10:24;3.92;;;2.83;;
11319;SDS011;5715;48.234;14.320;2023-06-24T08:13:12;3.70;;;2.88;;
11319;SDS011;5715;48.234;14.320;2023-06-24T08:16:00;5.03;;;4.63;;
11319;SDS011;5715;48.234;14.320;2023-06-24T08:18:48;6.32;;;3.78;;
11319;SDS011;5715;48.234;14.320;2023-06-24T08:21:35;5.82;;;3.35;;
11319;SDS011;5715;48.234;14.320;2023-06-24T08:24:24;3.22;;;2.92;;
11319;SDS011;5715;48.234;14.320;2023-06-24T08:27:12;5.55;;;3.30;;
11319;SDS011;5715;48.234;14.320;2023-06-24T08:30:00;2.85;;;2.42;;
11319;SDS011;5715;48.234;14.320;2023-06-24T08:33:05;3.13;;;2.83;;
11319;SDS011;5715;48.234;14.320;2023-06-24T08:35:53;3.88;;;3.47;;
11319;SDS011;5715;48.234;14.320;2023-06-24T08:38:41;4.15;;;3.20;;
11319;SDS011;5715;48.234;14.320;2023-06-24T08:41:28;3.20;;;2.90;;
11319;SDS011;5715;48.234;14.320;2023-06-24T08:44:16;2.33;;;2.13;;
11319;SDS011;5715;48.234;14.320;2023-06-24T08:47:04;3.38;;;2.75;;
11319;SDS011;5715;48.234;14.320;2023-06-24T08:49:52;3.50;;;2.97;;
11319;SDS011;5715;48.234;14.320;2023-06-24T08:52:50;3.20;;;2.40;;
11319;SDS011;5715;48.234;14.320;2023-06-24T08:55:43;7.93;;;2.55;;
11319;SDS011;5715;48.234;14.320;2023-06-24T08:58:33;3.28;;;2.53;;
11319;SDS011;5715;48.234;14.320;2023-06-24T09:01:20;3.50;;;3.20;;
11319;SDS011;5715;48.234;14.320;2023-06-24T09:04:10;2.90;;;2.50;;
11319;SDS011;5715;48.234;14.320;2023-06-24T09:06:57;3.70;;;3.22;;
11319;SDS011;5715;48.234;14.320;2023-06-24T09:09:45;3.13;;;2.80;;
11319;SDS011;5715;48.234;14.320;2023-06-24T09:12:33;5.75;;;3.38;;
11319;SDS011;5715;48.234;14.320;2023-06-24T09:15:22;3.75;;;3.28;;
11319;SDS011;5715;48.234;14.320;2023-06-24T09:18:09;3.13;;;2.65;;
11319;SDS011;5715;48.234;14.320;2023-06-24T09:20:58;8.88;;;2.95;;
11319;SDS011;5715;48.234;14.320;2023-06-24T09:23:50;3.42;;;3.13;;
11319;SDS011;5715;48.234;14.320;2023-06-24T09:26:42;6.53;;;2.92;;
11319;SDS011;5715;48.234;14.320;2023-06-24T09:29:32;2.83;;;2.50;;
11319;SDS011;5715;48.234;14.320;2023-06-24T09:32:21;6.13;;;3.83;;
11319;SDS011;5715;48.234;14.320;2023-06-24T09:35:24;3.40;;;3.10;;
11319;SDS011;5715;48.234;14.320;2023-06-24T09:38:13;7.90;;;3.40;;
11319;SDS011;5715;48.234;14.320;2023-06-24T09:41:04;3.40;;;3.15;;
11319;SDS011;5715;48.234;14.320;2023-06-24T09:43:59;3.50;;;3.00;;
11319;SDS011;5715;48.234;14.320;2023-06-24T09:46:47;3.60;;;3.25;;
11319;SDS011;5715;48.234;14.320;2023-06-24T09:49:35;3.00;;;2.70;;
11319;SDS011;5715;48.234;14.320;2023-06-24T09:52:22;3.33;;;2.92;;
11319;SDS011;5715;48.234;14.320;2023-06-24T09:55:13;3.08;;;2.72;;
11319;SDS011;5715;48.234;14.320;2023-06-24T09:58:03;3.17;;;2.88;;
11319;SDS011;5715;48.234;14.320;2023-06-24T10:00:51;3.25;;;2.90;;
11319;SDS011;5715;48.234;14.320;2023-06-24T10:03:41;2.95;;;2.65;;
11319;SDS011;5715;48.234;14.320;2023-06-24T10:06:30;6.60;;;3.53;;
11319;SDS011;5715;48.234;14.320;2023-06-24T10:09:21;3.03;;;2.65;;
11319;SDS011;5715;48.234;14.320;2023-06-24T10:12:09;3.70;;;2.92;;
11319;SDS011;5715;48.234;14.320;2023-06-24T10:14:58;3.63;;;3.28;;
11319;SDS011;5715;48.234;14.320;2023-06-24T10:17:46;2.72;;;2.53;;
11319;SDS011;5715;48.234;14.320;2023-06-24T10:20:36;2.80;;;2.58;;
11319;SDS011;5715;48.234;14.320;2023-06-24T10:26:35;5.00;;;3.30;;
11319;SDS011;5715;48.234;14.320;2023-06-24T10:29:33;2.53;;;2.33;;
11319;SDS011;5715;48.234;14.320;2023-06-24T10:32:22;6.25;;;2.95;;
11319;SDS011;5715;48.234;14.320;2023-06-24T10:35:24;3.55;;;3.03;;
11319;SDS011;5715;48.234;14.320;2023-06-24T10:38:17;3.90;;;2.85;;
11319;SDS011;5715;48.234;14.320;2023-06-24T10:41:15;3.10;;;2.80;;
11319;SDS011;5715;48.234;14.320;2023-06-24T10:44:14;2.65;;;2.45;;
11319;SDS011;5715;48.234;14.320;2023-06-24T10:47:02;3.08;;;2.75;;
11319;SDS011;5715;48.234;14.320;2023-06-24T10:49:50;3.63;;;2.92;;
11319;SDS011;5715;48.234;14.320;2023-06-24T10:52:39;2.45;;;2.28;;
11319;SDS011;5715;48.234;14.320;2023-06-24T10:55:29;4.13;;;3.22;;
11319;SDS011;5715;48.234;14.320;2023-06-24T10:58:17;3.00;;;2.78;;
11319;SDS011;5715;48.234;14.320;2023-06-24T11:01:08;3.08;;;2.78;;
11319;SDS011;5715;48.234;14.320;2023-06-24T11:03:56;3.65;;;3.30;;
11319;SDS011;5715;48.234;14.320;2023-06-24T11:06:56;4.25;;;2.70;;
11319;SDS011;5715;48.234;14.320;2023-06-24T11:09:52;3.63;;;3.30;;
11319;SDS011;5715;48.234;14.320;2023-06-24T11:12:41;6.40;;;3.45;;
11319;SDS011;5715;48.234;14.320;2023-06-24T11:15:31;4.97;;;3.20;;
11319;SDS011;5715;48.234;14.320;2023-06-24T11:18:22;3.13;;;2.65;;
11319;SDS011;5715;48.234;14.320;2023-06-24T11:21:09;2.92;;;2.53;;
11319;SDS011;5715;48.234;14.320;2023-06-24T11:24:00;3.00;;;2.47;;
11319;SDS011;5715;48.234;14.320;2023-06-24T11:26:52;2.83;;;2.63;;
11319;SDS011;5715;48.234;14.320;2023-06-24T11:29:39;3.03;;;2.70;;
11319;SDS011;5715;48.234;14.320;2023-06-24T11:32:41;2.72;;;2.53;;
11319;SDS011;5715;48.234;14.320;2023-06-24T11:35:31;3.15;;;2.30;;
11319;SDS011;5715;48.234;14.320;2023-06-24T11:38:22;2.38;;;2.05;;
11319;SDS011;5715;48.234;14.320;2023-06-24T11:41:09;3.38;;;2.78;;
11319;SDS011;5715;48.234;14.320;2023-06-24T11:43:57;3.72;;;2.25;;
11319;SDS011;5715;48.234;14.320;2023-06-24T11:46:46;2.85;;;2.38;;
11319;SDS011;5715;48.234;14.320;2023-06-24T11:52:45;5.07;;;3.17;;
11319;SDS011;5715;48.234;14.320;2023-06-24T11:55:41;2.50;;;2.17;;
11319;SDS011;5715;48.234;14.320;2023-06-24T11:58:29;2.83;;;2.55;;
11319;SDS011;5715;48.234;14.320;2023-06-24T12:01:22;3.60;;;2.60;;
11319;SDS011;5715;48.234;14.320;2023-06-24T12:04:18;4.47;;;2.90;;
11319;SDS011;5715;48.234;14.320;2023-06-24T12:07:06;2.15;;;1.75;;
11319;SDS011;5715;48.234;14.320;2023-06-24T12:09:54;2.45;;;2.05;;
11319;SDS011;5715;48.234;14.320;2023-06-24T12:12:41;2.85;;;2.15;;
11319;SDS011;5715;48.234;14.320;2023-06-24T12:15:29;3.15;;;2.50;;
11319;SDS011;5715;48.234;14.320;2023-06-24T12:18:17;3.42;;;1.92;;
11319;SDS011;5715;48.234;14.320;2023-06-24T12:21:04;2.38;;;2.00;;
11319;SDS011;5715;48.234;14.320;2023-06-24T12:23:52;3.28;;;2.25;;
11319;SDS011;5715;48.234;14.320;2023-06-24T12:26:39;4.47;;;1.98;;
11319;SDS011;5715;48.234;14.320;2023-06-24T12:29:27;3.03;;;1.80;;
11319;SDS011;5715;48.234;14.320;2023-06-24T12:32:14;2.72;;;2.25;;
11319;SDS011;5715;48.234;14.320;2023-06-24T12:35:02;3.55;;;2.40;;
11319;SDS011;5715;48.234;14.320;2023-06-24T12:37:51;5.95;;;2.60;;
11319;SDS011;5715;48.234;14.320;2023-06-24T12:40:38;2.85;;;1.95;;
11319;SDS011;5715;48.234;14.320;2023-06-24T12:43:26;4.68;;;2.53;;
11319;SDS011;5715;48.234;14.320;2023-06-24T12:46:13;3.33;;;2.85;;
11319;SDS011;5715;48.234;14.320;2023-06-24T12:49:01;6.80;;;2.88;;
11319;SDS011;5715;48.234;14.320;2023-06-24T12:51:49;3.22;;;2.90;;
11319;SDS011;5715;48.234;14.320;2023-06-24T12:54:36;3.55;;;3.25;;
11319;SDS011;5715;48.234;14.320;2023-06-24T12:57:24;4.50;;;4.10;;
11319;SDS011;5715;48.234;14.320;2023-06-24T13:00:12;5.15;;;4.75;;
11319;SDS011;5715;48.234;14.320;2023-06-24T13:03:00;7.00;;;6.53;;
11319;SDS011;5715;48.234;14.320;2023-06-24T13:05:48;5.38;;;5.07;;
11319;SDS011;5715;48.234;14.320;2023-06-24T13:08:35;6.05;;;5.65;;
11319;SDS011;5715;48.234;14.320;2023-06-24T13:11:23;6.82;;;6.10;;
11319;SDS011;5715;48.234;14.320;2023-06-24T13:14:10;5.65;;;5.18;;
11319;SDS011;5715;48.234;14.320;2023-06-24T13:16:59;5.78;;;5.38;;
11319;SDS011;5715;48.234;14.320;2023-06-24T13:19:47;4.90;;;4.60;;
11319;SDS011;5715;48.234;14.320;2023-06-24T13:22:34;4.78;;;4.47;;
11319;SDS011;5715;48.234;14.320;2023-06-24T13:25:22;4.68;;;3.58;;
11319;SDS011;5715;48.234;14.320;2023-06-24T13:28:09;3.83;;;3.58;;
11319;SDS011;5715;48.234;14.320;2023-06-24T13:30:57;8.68;;;4.95;;
11319;SDS011;5715;48.234;14.320;2023-06-24T13:33:45;4.57;;;4.28;;
11319;SDS011;5715;48.234;14.320;2023-06-24T13:36:36;4.60;;;4.30;;
11319;SDS011;5715;48.234;14.320;2023-06-24T13:39:25;4.82;;;4.53;;
11319;SDS011;5715;48.234;14.320;2023-06-24T13:42:14;4.60;;;4.30;;
11319;SDS011;5715;48.234;14.320;2023-06-24T13:45:01;4.50;;;4.10;;
11319;SDS011;5715;48.234;14.320;2023-06-24T13:47:49;4.35;;;4.05;;
11319;SDS011;5715;48.234;14.320;2023-06-24T13:50:37;4.53;;;4.18;;
11319;SDS011;5715;48.234;14.320;2023-06-24T13:53:25;3.65;;;3.45;;
11319;SDS011;5715;48.234;14.320;2023-06-24T13:56:12;3.80;;;3.50;;
11319;SDS011;5715;48.234;14.320;2023-06-24T13:59:00;2.78;;;2.58;;
11319;SDS011;5715;48.234;14.320;2023-06-24T14:01:47;2.25;;;2.10;;
11319;SDS011;5715;48.234;14.320;2023-06-24T14:04:35;2.67;;;2.35;;
11319;SDS011;5715;48.234;14.320;2023-06-24T14:07:23;2.47;;;2.28;;
11319;SDS011;5715;48.234;14.320;2023-06-24T14:10:11;3.17;;;2.30;;
11319;SDS011;5715;48.234;14.320;2023-06-24T14:12:59;3.05;;;2.30;;
11319;SDS011;5715;48.234;14.320;2023-06-24T14:15:47;3.33;;;2.20;;
11319;SDS011;5715;48.234;14.320;2023-06-24T14:18:34;2.22;;;2.03;;
11319;SDS011;5715;48.234;14.320;2023-06-24T14:21:22;2.92;;;2.13;;
11319;SDS011;5715;48.234;14.320;2023-06-24T14:24:11;2.03;;;1.77;;
11319;SDS011;5715;48.234;14.320;2023-06-24T14:27:03;2.67;;;1.98;;
11319;SDS011;5715;48.234;14.320;2023-06-24T14:29:53;3.05;;;2.20;;
11319;SDS011;5715;48.234;14.320;2023-06-24T14:32:40;1.92;;;1.73;;
11319;SDS011;5715;48.234;14.320;2023-06-24T14:35:28;2.35;;;2.00;;
11319;SDS011;5715;48.234;14.320;2023-06-24T14:38:15;2.55;;;2.22;;
11319;SDS011;5715;48.234;14.320;2023-06-24T14:41:03;2.28;;;2.00;;
11319;SDS011;5715;48.234;14.320;2023-06-24T14:43:50;3.08;;;2.45;;
11319;SDS011;5715;48.234;14.320;2023-06-24T14:46:38;2.72;;;2.30;;
11319;SDS011;5715;48.234;14.320;2023-06-24T14:49:26;2.38;;;2.17;;
11319;SDS011;5715;48.234;14.320;2023-06-24T14:52:13;2.40;;;2.00;;
11319;SDS011;5715;48.234;14.320;2023-06-24T14:55:01;2.53;;;2.33;;
11319;SDS011;5715;48.234;14.320;2023-06-24T14:57:49;7.45;;;2.45;;
11319;SDS011;5715;48.234;14.320;2023-06-24T15:00:36;2.03;;;1.80;;
11319;SDS011;5715;48.234;14.320;2023-06-24T15:03:24;2.58;;;2.20;;
11319;SDS011;5715;48.234;14.320;2023-06-24T15:06:12;2.47;;;2.28;;
11319;SDS011;5715;48.234;14.320;2023-06-24T15:08:59;2.50;;;2.30;;
11319;SDS011;5715;48.234;14.320;2023-06-24T15:11:47;2.22;;;2.03;;
11319;SDS011;5715;48.234;14.320;2023-06-24T15:14:35;4.18;;;2.38;;
11319;SDS011;5715;48.234;14.320;2023-06-24T15:17:22;2.72;;;2.40;;
11319;SDS011;5715;48.234;14.320;2023-06-24T15:20:11;2.75;;;2.50;;
11319;SDS011;5715;48.234;14.320;2023-06-24T15:22:59;4.70;;;2.58;;
11319;SDS011;5715;48.234;14.320;2023-06-24T15:25:47;2.47;;;2.00;;
11319;SDS011;5715;48.234;14.320;2023-06-24T15:28:35;5.55;;;2.58;;
11319;SDS011;5715;48.234;14.320;2023-06-24T15:31:22;3.75;;;2.20;;
11319;SDS011;5715;48.234;14.320;2023-06-24T15:34:10;2.15;;;2.00;;
11319;SDS011;5715;48.234;14.320;2023-06-24T15:36:59;3.53;;;2.58;;
11319;SDS011;5715;48.234;14.320;2023-06-24T15:39:47;2.53;;;2.33;;
11319;SDS011;5715;48.234;14.320;2023-06-24T15:42:34;3.08;;;2.53;;
11319;SDS011;5715;48.234;14.320;2023-06-24T15:45:23;2.15;;;1.95;;
11319;SDS011;5715;48.234;14.320;2023-06-24T15:48:11;3.00;;;2.70;;
11319;SDS011;5715;48.234;14.320;2023-06-24T15:50:58;2.72;;;2.53;;
11319;SDS011;5715;48.234;14.320;2023-06-24T15:53:46;2.88;;;2.47;;
11319;SDS011;5715;48.234;14.320;2023-06-24T15:56:33;2.72;;;2.53;;
11319;SDS011;5715;48.234;14.320;2023-06-24T15:59:21;2.55;;;2.35;;
11319;SDS011;5715;48.234;14.320;2023-06-24T16:02:09;3.00;;;2.70;;
11319;SDS011;5715;48.234;14.320;2023-06-24T16:04:57;2.70;;;2.40;;
11319;SDS011;5715;48.234;14.320;2023-06-24T16:07:44;3.63;;;2.25;;
11319;SDS011;5715;48.234;14.320;2023-06-24T16:10:32;3.38;;;2.63;;
11319;SDS011;5715;48.234;14.320;2023-06-24T16:13:20;4.20;;;2.42;;
11319;SDS011;5715;48.234;14.320;2023-06-24T16:16:07;2.47;;;2.10;;
11319;SDS011;5715;48.234;14.320;2023-06-24T16:18:55;3.05;;;2.55;;
11319;SDS011;5715;48.234;14.320;2023-06-24T16:21:43;4.15;;;2.45;;
11319;SDS011;5715;48.234;14.320;2023-06-24T16:24:30;3.10;;;2.55;;
11319;SDS011;5715;48.234;14.320;2023-06-24T16:27:18;2.60;;;2.22;;
11319;SDS011;5715;48.234;14.320;2023-06-24T16:30:05;4.32;;;2.53;;
11319;SDS011;5715;48.234;14.320;2023-06-24T16:32:54;2.97;;;2.20;;
11319;SDS011;5715;48.234;14.320;2023-06-24T16:35:44;4.60;;;2.72;;
11319;SDS011;5715;48.234;14.320;2023-06-24T16:38:32;4.80;;;2.22;;
11319;SDS011;5715;48.234;14.320;2023-06-24T16:41:20;3.13;;;2.58;;
11319;SDS011;5715;48.234;14.320;2023-06-24T16:44:07;3.13;;;2.72;;
11319;SDS011;5715;48.234;14.320;2023-06-24T16:46:55;2.40;;;2.20;;
11319;SDS011;5715;48.234;14.320;2023-06-24T16:49:42;10.32;;;2.78;;
11319;SDS011;5715;48.234;14.320;2023-06-24T16:52:35;2.83;;;2.53;;
11319;SDS011;5715;48.234;14.320;2023-06-24T16:55:22;2.42;;;2.22;;
11319;SDS011;5715;48.234;14.320;2023-06-24T16:58:10;3.10;;;2.80;;
11319;SDS011;5715;48.234;14.320;2023-06-24T17:00:57;2.47;;;2.28;;
11319;SDS011;5715;48.234;14.320;2023-06-24T17:03:45;2.20;;;2.00;;
11319;SDS011;5715;48.234;14.320;2023-06-24T17:06:33;2.83;;;2.40;;
11319;SDS011;5715;48.234;14.320;2023-06-24T17:09:20;3.08;;;2.40;;
11319;SDS011;5715;48.234;14.320;2023-06-24T17:12:08;2.60;;;2.40;;
11319;SDS011;5715;48.234;14.320;2023-06-24T17:14:55;3.08;;;2.63;;
11319;SDS011;5715;48.234;14.320;2023-06-24T17:17:43;3.13;;;2.17;;
11319;SDS011;5715;48.234;14.320;2023-06-24T17:20:31;2.45;;;2.25;;